createdAt,value
2018-07-14T00:00:38.950Z,14.50
2018-07-14T00:01:38.968Z,16.90
2018-07-14T00:02:38.990Z,14.10
2018-07-14T00:03:39.005Z,17.00
2018-07-14T00:04:39.025Z,12.70
2018-07-14T00:05:39.045Z,17.40
2018-07-14T00:06:39.070Z,13.10
2018-07-14T00:07:39.083Z,12.70
2018-07-14T00:08:39.107Z,12.90
2018-07-14T00:09:39.142Z,17.30
2018-07-14T00:10:39.146Z,12.90
2018-07-14T00:11:39.162Z,11.30
2018-07-14T00:12:39.192Z,14.20
2018-07-14T00:13:39.210Z,11.80
2018-07-14T00:14:39.222Z,17.20
2018-07-14T00:15:39.245Z,12.60
2018-07-14T00:16:39.262Z,12.50
2018-07-14T00:17:39.292Z,13.90
2018-07-14T00:18:39.301Z,15.40
2018-07-14T00:19:39.334Z,14.80
2018-07-14T00:20:39.346Z,13.40
2018-07-14T00:21:39.365Z,13.30
2018-07-14T00:22:39.391Z,13.70
2018-07-14T00:23:39.411Z,13.60
2018-07-14T00:24:39.422Z,18.30
2018-07-14T00:25:39.445Z,14.00
2018-07-14T00:26:39.473Z,17.00
2018-07-14T00:27:39.482Z,13.10
2018-07-14T00:28:39.506Z,18.60
2018-07-14T00:29:39.530Z,14.70
2018-07-14T00:30:39.545Z,13.00
2018-07-14T00:31:39.567Z,12.40
2018-07-14T00:32:39.586Z,19.10
2018-07-14T00:33:39.607Z,16.10
2018-07-14T00:34:39.635Z,13.00
2018-07-14T00:35:39.647Z,18.00
2018-07-14T00:36:39.689Z,17.10
2018-07-14T00:37:39.679Z,14.10
2018-07-14T00:38:39.698Z,13.90
2018-07-14T00:39:39.720Z,13.30
2018-07-14T00:40:39.755Z,14.80
2018-07-14T00:41:39.757Z,14.80
2018-07-14T00:42:39.776Z,12.20
2018-07-14T00:43:39.803Z,14.00
2018-07-14T00:44:39.837Z,15.20
2018-07-14T00:45:39.840Z,15.20
2018-07-14T00:46:39.858Z,14.40
2018-07-14T00:47:39.884Z,14.20
2018-07-14T00:48:39.896Z,13.90
2018-07-14T00:49:39.918Z,13.40
2018-07-14T00:50:39.934Z,14.80
2018-07-14T00:51:39.958Z,15.20
2018-07-14T00:52:39.979Z,14.60
2018-07-14T00:53:39.998Z,13.30
2018-07-14T00:54:40.014Z,15.30
2018-07-14T00:55:40.036Z,15.80
2018-07-14T00:56:40.068Z,14.60
2018-07-14T00:57:40.089Z,13.20
2018-07-14T00:58:40.099Z,14.30
2018-07-14T00:59:40.119Z,13.50
2018-07-14T01:00:40.134Z,16.20
2018-07-14T01:01:40.153Z,15.50
2018-07-14T01:02:40.175Z,15.50
2018-07-14T01:03:40.192Z,13.00
2018-07-14T01:04:40.211Z,14.70
2018-07-14T01:05:40.234Z,13.40
2018-07-14T01:06:40.258Z,14.70
2018-07-14T01:07:40.269Z,12.90
2018-07-14T01:08:40.295Z,15.30
2018-07-14T01:09:40.314Z,12.40
2018-07-14T01:10:40.335Z,13.10
2018-07-14T01:11:40.352Z,15.90
2018-07-14T01:12:40.380Z,13.50
2018-07-14T01:13:40.390Z,11.90
2018-07-14T01:14:40.415Z,18.10
2018-07-14T01:15:40.440Z,13.90
2018-07-14T01:16:40.451Z,14.70
2018-07-14T01:17:40.525Z,14.10
2018-07-14T01:18:40.495Z,17.70
2018-07-14T01:19:40.514Z,16.20
2018-07-14T01:20:40.526Z,18.40
2018-07-14T01:21:40.555Z,18.20
2018-07-14T01:22:40.568Z,13.70
2018-07-14T01:23:40.593Z,17.30
2018-07-14T01:24:40.612Z,15.80
2018-07-14T01:25:40.629Z,14.80
2018-07-14T01:26:40.647Z,15.10
2018-07-14T01:27:40.663Z,17.70
2018-07-14T01:28:40.684Z,15.40
2018-07-14T01:29:40.706Z,16.40
2018-07-14T01:30:40.724Z,14.10
2018-07-14T01:31:40.753Z,16.20
2018-07-14T01:32:40.762Z,16.30
2018-07-14T01:33:40.792Z,14.80
2018-07-14T01:34:40.809Z,16.40
2018-07-14T01:35:40.828Z,19.60
2018-07-14T01:36:40.841Z,17.70
2018-07-14T01:37:40.864Z,15.50
2018-07-14T01:38:40.887Z,20.60
2018-07-14T01:39:40.901Z,17.10
2018-07-14T01:40:40.968Z,15.10
2018-07-14T01:41:40.940Z,16.50
2018-07-14T01:42:40.966Z,19.90
2018-07-14T01:43:41.008Z,19.40
2018-07-14T01:44:41.004Z,16.60
2018-07-14T01:45:41.020Z,18.80
2018-07-14T01:46:41.046Z,16.40
2018-07-14T01:47:41.061Z,14.50
2018-07-14T01:48:41.082Z,16.20
2018-07-14T01:49:41.097Z,16.40
2018-07-14T01:50:41.117Z,17.10
2018-07-14T01:51:41.139Z,16.90
2018-07-14T01:52:41.159Z,19.30
2018-07-14T01:53:41.181Z,18.50
2018-07-14T01:54:41.200Z,16.40
2018-07-14T01:55:41.222Z,19.60
2018-07-14T01:56:41.238Z,18.30
2018-07-14T01:57:41.260Z,16.00
2018-07-14T01:58:41.280Z,17.10
2018-07-14T01:59:41.297Z,16.10
2018-07-14T02:00:41.313Z,15.00
2018-07-14T02:01:41.334Z,16.50
2018-07-14T02:02:41.353Z,17.30
2018-07-14T02:03:41.373Z,18.60
2018-07-14T02:04:41.388Z,16.00
2018-07-14T02:05:41.410Z,16.80
2018-07-14T02:06:41.434Z,15.90
2018-07-14T02:07:41.453Z,18.40
2018-07-14T02:08:41.471Z,18.20
2018-07-14T02:09:41.494Z,21.10
2018-07-14T02:10:41.514Z,15.90
2018-07-14T02:11:41.536Z,19.90
2018-07-14T02:12:41.550Z,17.50
2018-07-14T02:13:41.572Z,19.40
2018-07-14T02:14:41.602Z,18.90
2018-07-14T02:15:41.614Z,15.10
2018-07-14T02:16:41.628Z,16.10
2018-07-14T02:17:41.647Z,20.50
2018-07-14T02:18:41.664Z,18.00
2018-07-14T02:19:41.686Z,18.50
2018-07-14T02:20:41.749Z,16.90
2018-07-14T02:21:41.723Z,19.50
2018-07-14T02:22:41.745Z,16.20
2018-07-14T02:23:41.764Z,16.90
2018-07-14T02:24:41.783Z,14.90
2018-07-14T02:25:41.811Z,14.90
2018-07-14T02:26:41.818Z,17.60
2018-07-14T02:27:41.853Z,15.90
2018-07-14T02:28:41.861Z,18.90
2018-07-14T02:29:41.886Z,18.40
2018-07-14T02:30:41.913Z,19.10
2018-07-14T02:31:41.920Z,14.10
2018-07-14T02:32:41.939Z,18.00
2018-07-14T02:33:41.957Z,16.80
2018-07-14T02:34:41.979Z,18.80
2018-07-14T02:35:42.003Z,18.00
2018-07-14T02:36:42.014Z,17.60
2018-07-14T02:37:42.043Z,15.90
2018-07-14T02:38:42.063Z,16.00
2018-07-14T02:39:42.074Z,20.70
2018-07-14T02:40:42.124Z,16.90
2018-07-14T02:41:42.112Z,15.70
2018-07-14T02:42:42.132Z,16.70
2018-07-14T02:43:42.154Z,19.00
2018-07-14T02:44:42.176Z,18.60
2018-07-14T02:45:42.202Z,14.90
2018-07-14T02:46:42.214Z,19.40
2018-07-14T02:47:42.229Z,21.60
2018-07-14T02:48:42.250Z,18.90
2018-07-14T02:49:42.274Z,18.60
2018-07-14T02:50:42.289Z,18.30
2018-07-14T02:51:42.307Z,18.60
2018-07-14T02:52:42.333Z,20.10
2018-07-14T02:53:42.357Z,17.60
2018-07-14T02:54:42.379Z,17.10
2018-07-14T02:55:42.389Z,16.10
2018-07-14T02:56:42.407Z,18.60
2018-07-14T02:57:42.430Z,18.30
2018-07-14T02:58:42.441Z,18.60
2018-07-14T02:59:42.485Z,25.20
2018-07-14T03:00:42.484Z,24.70
2018-07-14T03:01:42.520Z,17.80
2018-07-14T03:02:42.526Z,20.30
2018-07-14T03:03:42.545Z,15.90
2018-07-14T03:04:42.571Z,18.20
2018-07-14T03:05:42.579Z,16.40
2018-07-14T03:06:42.603Z,20.70
2018-07-14T03:07:42.621Z,17.70
2018-07-14T03:08:42.642Z,19.00
2018-07-14T03:09:42.659Z,16.20
2018-07-14T03:10:42.681Z,17.80
2018-07-14T03:11:42.703Z,18.10
2018-07-14T03:12:42.754Z,22.50
2018-07-14T03:13:42.741Z,20.00
2018-07-14T03:14:42.756Z,17.30
2018-07-14T03:15:42.772Z,20.20
2018-07-14T03:16:42.797Z,18.90
2018-07-14T03:17:42.824Z,19.20
2018-07-14T03:18:42.833Z,17.70
2018-07-14T03:19:42.849Z,19.90
2018-07-14T03:20:42.876Z,20.20
2018-07-14T03:21:42.888Z,20.70
2018-07-14T03:22:42.911Z,22.70
2018-07-14T03:23:42.928Z,22.10
2018-07-14T03:24:42.952Z,19.20
2018-07-14T03:25:42.969Z,20.40
2018-07-14T03:26:42.985Z,16.60
2018-07-14T03:27:43.010Z,23.90
2018-07-14T03:28:43.026Z,17.50
2018-07-14T03:29:43.047Z,19.30
2018-07-14T03:30:43.063Z,19.30
2018-07-14T03:31:43.081Z,21.70
2018-07-14T03:32:43.100Z,22.30
2018-07-14T03:33:43.119Z,17.70
2018-07-14T03:34:43.140Z,14.90
2018-07-14T03:35:43.161Z,19.20
2018-07-14T03:36:43.231Z,17.80
2018-07-14T03:37:43.200Z,18.70
2018-07-14T03:38:43.216Z,18.30
2018-07-14T03:39:43.240Z,18.20
2018-07-14T03:40:43.259Z,19.00
2018-07-14T03:41:43.274Z,16.90
2018-07-14T03:42:43.294Z,21.50
2018-07-14T03:43:43.314Z,19.00
2018-07-14T03:44:43.333Z,20.00
2018-07-14T03:45:43.360Z,20.60
2018-07-14T03:46:43.370Z,22.20
2018-07-14T03:47:43.391Z,24.30
2018-07-14T03:48:43.413Z,16.20
2018-07-14T03:49:43.433Z,21.50
2018-07-14T03:50:43.450Z,19.90
2018-07-14T03:51:43.466Z,20.80
2018-07-14T03:52:43.499Z,17.80
2018-07-14T03:53:43.508Z,17.70
2018-07-14T03:54:43.529Z,23.10
2018-07-14T03:55:43.549Z,18.10
2018-07-14T03:56:43.564Z,18.50
2018-07-14T03:57:43.590Z,17.60
2018-07-14T03:58:43.608Z,20.30
2018-07-14T03:59:43.621Z,22.90
2018-07-14T04:00:43.641Z,22.10
2018-07-14T04:01:43.662Z,20.90
2018-07-14T04:02:43.683Z,19.20
2018-07-14T04:03:43.699Z,24.30
2018-07-14T04:04:43.726Z,20.80
2018-07-14T04:05:43.749Z,21.00
2018-07-14T04:06:43.757Z,19.50
2018-07-14T04:07:43.780Z,30.00
2018-07-14T04:08:43.799Z,24.40
2018-07-14T04:09:43.817Z,26.60
2018-07-14T04:10:43.849Z,30.80
2018-07-14T04:11:43.858Z,28.60
2018-07-14T04:12:43.893Z,22.00
2018-07-14T04:13:43.900Z,24.30
2018-07-14T04:14:43.953Z,21.50
2018-07-14T04:15:43.938Z,18.40
2018-07-14T04:16:43.974Z,17.30
2018-07-14T04:17:43.985Z,26.80
2018-07-14T04:18:44.013Z,18.00
2018-07-14T04:19:44.013Z,23.10
2018-07-14T04:20:44.036Z,23.60
2018-07-14T04:21:44.057Z,17.80
2018-07-14T04:22:44.077Z,24.10
2018-07-14T04:23:44.090Z,18.00
2018-07-14T04:24:44.111Z,19.30
2018-07-14T04:25:44.150Z,18.70
2018-07-14T04:26:44.150Z,18.20
2018-07-14T04:27:44.176Z,17.50
2018-07-14T04:28:44.190Z,24.10
2018-07-14T04:29:44.215Z,18.90
2018-07-14T04:30:44.230Z,21.00
2018-07-14T04:31:44.250Z,20.50
2018-07-14T04:32:44.271Z,19.30
2018-07-14T04:33:44.298Z,16.80
2018-07-14T04:34:44.317Z,16.80
2018-07-14T04:35:44.330Z,19.60
2018-07-14T04:36:44.352Z,18.00
2018-07-14T04:37:44.375Z,16.70
2018-07-14T04:38:44.389Z,16.90
2018-07-14T04:39:44.418Z,21.00
2018-07-14T04:40:44.433Z,17.20
2018-07-14T04:41:44.452Z,16.00
2018-07-14T04:42:44.477Z,16.10
2018-07-14T04:43:44.501Z,19.00
2018-07-14T04:44:44.513Z,18.30
2018-07-14T04:45:44.541Z,15.80
2018-07-14T04:46:44.559Z,18.90
2018-07-14T04:47:44.573Z,14.70
2018-07-14T04:48:44.608Z,15.40
2018-07-14T04:49:44.614Z,20.70
2018-07-14T04:50:44.635Z,20.70
2018-07-14T04:51:44.662Z,18.70
2018-07-14T04:52:44.678Z,23.80
2018-07-14T04:53:44.696Z,22.30
2018-07-14T04:54:44.719Z,22.40
2018-07-14T04:55:44.739Z,18.20
2018-07-14T04:56:44.760Z,21.20
2018-07-14T04:57:44.782Z,20.00
2018-07-14T04:58:44.804Z,19.50
2018-07-14T04:59:44.824Z,26.20
2018-07-14T05:00:44.846Z,23.80
2018-07-14T05:01:44.865Z,27.40
2018-07-14T05:02:44.887Z,17.70
2018-07-14T05:03:44.906Z,20.70
2018-07-14T05:04:44.929Z,21.20
2018-07-14T05:05:44.962Z,16.30
2018-07-14T05:06:44.970Z,21.70
2018-07-14T05:07:44.993Z,21.20
2018-07-14T05:08:45.030Z,17.50
2018-07-14T05:09:45.068Z,17.30
2018-07-14T05:10:45.060Z,17.90
2018-07-14T05:11:45.091Z,17.90
2018-07-14T05:12:45.112Z,19.10
2018-07-14T05:13:45.141Z,22.20
2018-07-14T05:14:45.170Z,17.20
2018-07-14T05:15:45.186Z,15.40
2018-07-14T05:16:45.194Z,16.10
2018-07-14T05:17:45.221Z,17.90
2018-07-14T05:18:45.237Z,21.40
2018-07-14T05:19:45.260Z,16.30
2018-07-14T05:20:45.296Z,15.70
2018-07-14T05:21:45.317Z,14.90
2018-07-14T05:22:45.329Z,17.20
2018-07-14T05:23:45.359Z,14.20
2018-07-14T05:24:45.381Z,17.40
2018-07-14T05:25:45.405Z,20.10
2018-07-14T05:26:45.427Z,18.80
2018-07-14T05:27:45.463Z,15.50
2018-07-14T05:28:45.482Z,17.60
2018-07-14T05:29:45.501Z,17.10
2018-07-14T05:30:45.529Z,14.00
2018-07-14T05:31:45.547Z,17.50
2018-07-14T05:32:45.570Z,15.20
2018-07-14T05:33:45.614Z,15.60
2018-07-14T05:34:45.631Z,13.70
2018-07-14T05:35:45.647Z,13.40
2018-07-14T05:36:45.667Z,18.30
2018-07-14T05:37:45.698Z,17.10
2018-07-14T05:38:45.714Z,16.90
2018-07-14T05:39:45.739Z,17.20
2018-07-14T05:40:45.767Z,15.70
2018-07-14T05:41:45.798Z,17.20
2018-07-14T05:42:45.813Z,16.30
2018-07-14T05:43:45.838Z,16.30
2018-07-14T05:44:45.859Z,16.10
2018-07-14T05:45:45.893Z,16.20
2018-07-14T05:46:46.038Z,15.30
2018-07-14T05:47:45.945Z,14.10
2018-07-14T05:48:45.973Z,14.40
2018-07-14T05:49:46.001Z,18.50
2018-07-14T05:50:46.021Z,14.60
2018-07-14T05:51:46.048Z,15.50
2018-07-14T05:52:46.069Z,14.10
2018-07-14T05:53:46.110Z,14.80
2018-07-14T05:54:46.129Z,13.20
2018-07-14T05:55:46.165Z,13.20
2018-07-14T05:56:46.175Z,15.60
2018-07-14T05:57:46.216Z,13.00
2018-07-14T05:58:46.231Z,14.30
2018-07-14T05:59:46.252Z,12.90
2018-07-14T06:00:46.295Z,14.90
2018-07-14T06:01:46.324Z,13.90
2018-07-14T06:02:46.343Z,15.60
2018-07-14T06:03:46.362Z,15.30
2018-07-14T06:04:46.399Z,14.60
2018-07-14T06:05:46.417Z,15.20
2018-07-14T06:06:46.443Z,14.30
2018-07-14T06:07:46.488Z,14.00
2018-07-14T06:08:46.495Z,15.30
2018-07-14T06:09:46.523Z,14.00
2018-07-14T06:10:46.551Z,12.30
2018-07-14T06:11:46.579Z,15.70
2018-07-14T06:12:46.597Z,15.80
2018-07-14T06:13:46.629Z,12.00
2018-07-14T06:14:46.659Z,14.90
2018-07-14T06:15:46.683Z,14.00
2018-07-14T06:16:46.727Z,15.10
2018-07-14T06:17:46.739Z,12.90
2018-07-14T06:18:46.774Z,12.00
2018-07-14T06:19:46.790Z,13.50
2018-07-14T06:20:46.817Z,12.60
2018-07-14T06:21:46.843Z,11.00
2018-07-14T06:22:46.876Z,14.90
2018-07-14T06:23:46.916Z,11.50
2018-07-14T06:24:46.928Z,14.90
2018-07-14T06:25:46.967Z,12.10
2018-07-14T06:26:46.981Z,11.90
2018-07-14T06:27:47.005Z,11.30
2018-07-14T06:28:47.044Z,13.20
2018-07-14T06:29:47.068Z,12.60
2018-07-14T06:30:47.099Z,11.40
2018-07-14T06:31:47.121Z,12.90
2018-07-14T06:32:47.166Z,11.80
2018-07-14T06:33:47.181Z,11.10
2018-07-14T06:34:47.204Z,11.40
2018-07-14T06:35:47.237Z,13.10
2018-07-14T06:36:47.268Z,12.40
2018-07-14T06:37:47.295Z,11.40
2018-07-14T06:38:47.328Z,11.90
2018-07-14T06:39:47.347Z,11.30
2018-07-14T06:40:47.402Z,11.20
2018-07-14T06:41:47.408Z,10.40
2018-07-14T06:42:47.444Z,11.30
2018-07-14T06:43:47.467Z,12.70
2018-07-14T06:44:47.553Z,11.70
2018-07-14T06:45:47.520Z,10.80
2018-07-14T06:46:47.560Z,12.00
2018-07-14T06:47:47.580Z,13.50
2018-07-14T06:48:47.612Z,11.20
2018-07-14T06:49:47.632Z,10.90
2018-07-14T06:50:47.662Z,12.10
2018-07-14T06:51:47.699Z,11.80
2018-07-14T06:52:47.719Z,10.30
2018-07-14T06:53:47.761Z,9.70
2018-07-14T06:54:47.774Z,10.70
2018-07-14T06:55:47.816Z,9.40
2018-07-14T06:56:47.836Z,9.60
2018-07-14T06:57:47.950Z,9.60
2018-07-14T06:58:47.891Z,13.10
2018-07-14T06:59:47.928Z,9.40
2018-07-14T07:00:47.953Z,9.00
2018-07-14T07:01:47.974Z,9.70
2018-07-14T07:02:48.009Z,11.00
2018-07-14T07:03:48.040Z,8.00
2018-07-14T07:04:48.061Z,9.40
2018-07-14T07:05:48.095Z,8.40
2018-07-14T07:06:48.127Z,11.00
2018-07-14T07:07:48.159Z,8.60
2018-07-14T07:08:48.185Z,8.20
2018-07-14T07:09:48.218Z,8.20
2018-07-14T07:10:48.240Z,10.20
2018-07-14T07:11:48.271Z,9.90
2018-07-14T07:12:48.299Z,8.30
2018-07-14T07:13:48.429Z,8.30
2018-07-14T07:14:48.364Z,9.10
2018-07-14T07:15:48.387Z,10.00
2018-07-14T07:16:48.434Z,8.10
2018-07-14T07:17:48.451Z,8.30
2018-07-14T07:18:48.488Z,9.00
2018-07-14T07:19:48.509Z,12.00
2018-07-14T07:20:48.537Z,10.30
2018-07-14T07:21:48.575Z,10.60
2018-07-14T07:22:48.686Z,8.60
2018-07-14T07:23:48.627Z,8.80
2018-07-14T07:24:48.660Z,10.10
2018-07-14T07:25:48.691Z,6.80
2018-07-14T07:26:48.798Z,7.70
2018-07-14T07:27:48.752Z,8.00
2018-07-14T07:28:48.847Z,8.90
2018-07-14T07:29:48.812Z,6.40
2018-07-14T07:30:48.842Z,8.00
2018-07-14T07:31:48.867Z,7.00
2018-07-14T07:32:48.895Z,8.40
2018-07-14T07:33:48.931Z,7.70
2018-07-14T07:34:48.966Z,6.70
2018-07-14T07:35:49.010Z,6.90
2018-07-14T07:36:49.018Z,8.70
2018-07-14T07:37:49.056Z,10.20
2018-07-14T07:38:49.075Z,8.40
2018-07-14T07:39:49.110Z,6.50
2018-07-14T07:40:49.138Z,11.50
2018-07-14T07:41:49.169Z,7.60
2018-07-14T07:42:49.204Z,7.50
2018-07-14T07:43:49.234Z,7.40
2018-07-14T07:44:49.264Z,8.00
2018-07-14T07:45:49.296Z,9.00
2018-07-14T07:46:49.324Z,7.60
2018-07-14T07:47:49.364Z,9.40
2018-07-14T07:48:49.388Z,10.30
2018-07-14T07:49:49.429Z,8.30
2018-07-14T07:50:49.465Z,8.60
2018-07-14T07:51:49.480Z,5.60
2018-07-14T07:52:49.506Z,10.00
2018-07-14T07:53:49.537Z,10.20
2018-07-14T07:54:49.567Z,10.30
2018-07-14T07:55:49.601Z,7.30
2018-07-14T07:56:49.622Z,9.90
2018-07-14T07:57:49.661Z,7.40
2018-07-14T07:58:49.685Z,10.80
2018-07-14T07:59:49.716Z,8.20
2018-07-14T08:00:49.749Z,8.30
2018-07-14T08:01:49.784Z,9.30
2018-07-14T08:02:49.824Z,10.30
2018-07-14T08:03:49.849Z,7.70
2018-07-14T08:04:49.865Z,10.90
2018-07-14T08:05:49.894Z,8.30
2018-07-14T08:06:49.931Z,7.20
2018-07-14T08:07:49.964Z,7.40
2018-07-14T08:08:49.989Z,7.00
2018-07-14T08:09:50.028Z,8.80
2018-07-14T08:10:50.056Z,7.30
2018-07-14T08:11:50.075Z,9.40
2018-07-14T08:12:50.112Z,9.90
2018-07-14T08:13:50.135Z,7.80
2018-07-14T08:14:50.166Z,9.00
2018-07-14T08:15:50.209Z,7.60
2018-07-14T08:16:50.234Z,7.20
2018-07-14T08:17:50.257Z,7.60
2018-07-14T08:18:50.292Z,7.20
2018-07-14T08:19:50.314Z,8.30
2018-07-14T08:20:50.369Z,6.00
2018-07-14T08:21:50.382Z,7.70
2018-07-14T08:22:50.472Z,8.40
2018-07-14T08:23:50.446Z,8.50
2018-07-14T08:24:50.482Z,7.10
2018-07-14T08:25:50.502Z,6.00
2018-07-14T08:26:50.531Z,7.40
2018-07-14T08:27:50.555Z,7.40
2018-07-14T08:28:50.587Z,9.00
2018-07-14T08:29:50.616Z,6.70
2018-07-14T08:30:50.645Z,6.50
2018-07-14T08:31:50.671Z,8.10
2018-07-14T08:32:50.704Z,7.20
2018-07-14T08:33:50.742Z,6.00
2018-07-14T08:34:50.771Z,6.30
2018-07-14T08:35:50.795Z,8.20
2018-07-14T08:36:50.816Z,7.70
2018-07-14T08:37:50.851Z,8.30
2018-07-14T08:38:50.873Z,10.00
2018-07-14T08:39:50.934Z,8.10
2018-07-14T08:40:50.929Z,6.40
2018-07-14T08:41:50.965Z,7.60
2018-07-14T08:42:50.986Z,9.10
2018-07-14T08:43:51.110Z,8.50
2018-07-14T08:44:51.033Z,13.90
2018-07-14T08:45:51.068Z,10.50
2018-07-14T08:46:51.091Z,6.70
2018-07-14T08:47:51.121Z,9.30
2018-07-14T08:48:51.151Z,8.50
2018-07-14T08:49:51.171Z,8.60
2018-07-14T08:50:51.200Z,8.40
2018-07-14T08:51:51.233Z,9.30
2018-07-14T08:52:51.258Z,8.70
2018-07-14T08:53:51.296Z,8.30
2018-07-14T08:54:51.302Z,8.30
2018-07-14T08:55:51.333Z,8.00
2018-07-14T08:56:51.350Z,9.30
2018-07-14T08:57:51.376Z,9.10
2018-07-14T08:58:51.404Z,9.50
2018-07-14T08:59:51.430Z,10.80
2018-07-14T09:00:51.466Z,8.30
2018-07-14T09:01:51.480Z,12.50
2018-07-14T09:02:51.506Z,12.30
2018-07-14T09:03:51.545Z,9.90
2018-07-14T09:04:51.559Z,8.70
2018-07-14T09:05:51.577Z,12.60
2018-07-14T09:06:51.610Z,12.30
2018-07-14T09:07:51.640Z,13.40
2018-07-14T09:08:51.656Z,9.70
2018-07-14T09:09:51.680Z,7.80
2018-07-14T09:10:51.703Z,7.90
2018-07-14T09:11:51.743Z,6.40
2018-07-14T09:12:51.754Z,13.40
2018-07-14T09:13:51.778Z,10.40
2018-07-14T09:14:51.806Z,8.80
2018-07-14T09:15:51.851Z,11.60
2018-07-14T09:16:51.860Z,7.70
2018-07-14T09:17:51.888Z,11.80
2018-07-14T09:18:51.907Z,10.20
2018-07-14T09:19:51.942Z,7.60
2018-07-14T09:20:51.961Z,13.70
2018-07-14T09:21:51.979Z,9.00
2018-07-14T09:22:52.014Z,8.00
2018-07-14T09:23:52.032Z,8.60
2018-07-14T09:24:52.053Z,9.20
2018-07-14T09:25:52.086Z,11.80
2018-07-14T09:26:52.110Z,9.50
2018-07-14T09:27:52.134Z,8.80
2018-07-14T09:28:52.154Z,8.40
2018-07-14T09:29:52.185Z,10.20
2018-07-14T09:30:52.215Z,8.40
2018-07-14T09:31:52.252Z,8.40
2018-07-14T09:32:52.255Z,10.40
2018-07-14T09:33:52.280Z,8.60
2018-07-14T09:34:52.304Z,8.40
2018-07-14T09:35:52.329Z,12.10
2018-07-14T09:36:52.350Z,6.60
2018-07-14T09:37:52.388Z,16.00
2018-07-14T09:38:52.409Z,11.20
2018-07-14T09:39:52.451Z,9.80
2018-07-14T09:40:52.459Z,10.70
2018-07-14T09:41:52.482Z,10.90
2018-07-14T09:42:52.505Z,10.00
2018-07-14T09:43:52.553Z,9.20
2018-07-14T09:44:52.555Z,8.20
2018-07-14T09:45:52.578Z,12.40
2018-07-14T09:46:52.602Z,11.60
2018-07-14T09:47:52.703Z,9.10
2018-07-14T09:48:52.653Z,9.30
2018-07-14T09:49:52.689Z,7.90
2018-07-14T09:50:52.706Z,10.00
2018-07-14T09:51:52.733Z,8.40
2018-07-14T09:52:52.769Z,7.90
2018-07-14T09:53:52.788Z,10.20
2018-07-14T09:54:52.807Z,9.30
2018-07-14T09:55:52.840Z,7.60
2018-07-14T09:56:52.869Z,10.10
2018-07-14T09:57:52.887Z,8.90
2018-07-14T09:58:52.912Z,14.30
2018-07-14T09:59:52.939Z,10.70
2018-07-14T10:00:52.974Z,10.00
2018-07-14T10:01:52.994Z,9.40
2018-07-14T10:02:53.012Z,7.70
2018-07-14T10:03:53.036Z,6.70
2018-07-14T10:04:53.069Z,9.10
2018-07-14T10:05:53.099Z,9.20
2018-07-14T10:06:53.122Z,9.60
2018-07-14T10:07:53.141Z,10.60
2018-07-14T10:08:53.166Z,8.70
2018-07-14T10:09:53.226Z,9.70
2018-07-14T10:10:53.222Z,7.80
2018-07-14T10:11:53.245Z,6.90
2018-07-14T10:12:53.275Z,8.50
2018-07-14T10:13:53.308Z,10.00
2018-07-14T10:14:53.370Z,8.80
2018-07-14T10:15:53.349Z,8.60
2018-07-14T10:16:53.381Z,8.40
2018-07-14T10:17:53.399Z,7.80
2018-07-14T10:18:53.434Z,7.10
2018-07-14T10:19:53.458Z,14.20
2018-07-14T10:20:53.493Z,7.20
2018-07-14T10:21:53.509Z,7.90
2018-07-14T10:22:53.528Z,7.70
2018-07-14T10:23:53.557Z,7.20
2018-07-14T10:24:53.582Z,8.30
2018-07-14T10:25:53.709Z,9.50
2018-07-14T10:26:53.628Z,10.10
2018-07-14T10:27:53.658Z,10.40
2018-07-14T10:28:53.753Z,11.50
2018-07-14T10:29:53.708Z,9.00
2018-07-14T10:30:53.730Z,9.20
2018-07-14T10:31:53.759Z,9.50
2018-07-14T10:32:53.783Z,11.20
2018-07-14T10:33:53.862Z,11.50
2018-07-14T10:34:53.835Z,8.40
2018-07-14T10:35:53.860Z,14.40
2018-07-14T10:36:53.893Z,8.70
2018-07-14T10:37:53.909Z,9.10
2018-07-14T10:38:54.017Z,10.80
2018-07-14T10:39:53.971Z,9.40
2018-07-14T10:40:53.992Z,12.60
2018-07-14T10:41:54.033Z,8.40
2018-07-14T10:42:54.049Z,12.20
2018-07-14T10:43:54.079Z,8.10
2018-07-14T10:44:54.096Z,10.90
2018-07-14T10:45:54.120Z,8.30
2018-07-14T10:46:54.210Z,8.20
2018-07-14T10:47:54.196Z,7.70
2018-07-14T10:48:54.209Z,8.20
2018-07-14T10:49:54.229Z,8.40
2018-07-14T10:50:54.245Z,8.20
2018-07-14T10:51:54.273Z,8.40
2018-07-14T10:52:54.304Z,7.40
2018-07-14T10:53:54.334Z,6.30
2018-07-14T10:54:54.342Z,9.00
2018-07-14T10:55:54.380Z,11.40
2018-07-14T10:56:54.398Z,7.20
2018-07-14T10:57:54.432Z,9.00
2018-07-14T10:58:54.455Z,9.80
2018-07-14T10:59:54.467Z,6.80
2018-07-14T11:00:54.508Z,7.60
2018-07-14T11:01:54.528Z,6.90
2018-07-14T11:02:54.551Z,6.80
2018-07-14T11:03:54.568Z,9.30
2018-07-14T11:04:54.604Z,7.60
2018-07-14T11:05:54.656Z,10.50
2018-07-14T11:06:54.643Z,9.70
2018-07-14T11:07:54.676Z,7.90
2018-07-14T11:08:54.726Z,10.30
2018-07-14T11:09:54.722Z,7.10
2018-07-14T11:10:54.756Z,10.30
2018-07-14T11:11:54.767Z,9.50
2018-07-14T11:12:54.799Z,8.90
2018-07-14T11:13:54.848Z,7.50
2018-07-14T11:14:54.872Z,9.30
2018-07-14T11:15:54.866Z,6.10
2018-07-14T11:16:54.948Z,11.10
2018-07-14T11:17:54.990Z,8.80
2018-07-14T11:18:54.944Z,8.90
2018-07-14T11:19:54.965Z,8.20
2018-07-14T11:20:55.009Z,7.90
2018-07-14T11:21:55.015Z,8.50
2018-07-14T11:22:55.042Z,9.20
2018-07-14T11:23:55.076Z,7.50
2018-07-14T11:24:55.086Z,8.80
2018-07-14T11:25:55.115Z,8.60
2018-07-14T11:26:55.150Z,7.60
2018-07-14T11:27:55.164Z,6.30
2018-07-14T11:28:55.197Z,8.20
2018-07-14T11:29:55.220Z,7.20
2018-07-14T11:30:55.253Z,8.00
2018-07-14T11:31:55.269Z,8.40
2018-07-14T11:32:55.292Z,9.20
2018-07-14T11:33:55.318Z,7.60
2018-07-14T11:34:55.352Z,10.40
2018-07-14T11:35:55.368Z,9.80
2018-07-14T11:36:55.391Z,7.50
2018-07-14T11:37:55.423Z,7.50
2018-07-14T11:38:55.446Z,6.60
2018-07-14T11:39:55.470Z,7.40
2018-07-14T11:40:55.493Z,7.50
2018-07-14T11:41:55.519Z,7.10
2018-07-14T11:42:55.545Z,10.10
2018-07-14T11:43:55.572Z,8.70
2018-07-14T11:44:55.601Z,7.60
2018-07-14T11:45:55.634Z,8.00
2018-07-14T11:46:55.648Z,8.90
2018-07-14T11:47:55.761Z,10.70
2018-07-14T11:48:55.697Z,8.70
2018-07-14T11:49:55.729Z,7.00
2018-07-14T11:50:55.739Z,10.80
2018-07-14T11:51:55.764Z,7.30
2018-07-14T11:52:55.795Z,8.30
2018-07-14T11:53:55.820Z,7.80
2018-07-14T11:54:55.844Z,8.40
2018-07-14T11:55:55.874Z,7.50
2018-07-14T11:56:55.904Z,6.80
2018-07-14T11:57:55.927Z,7.90
2018-07-14T11:58:55.947Z,7.80
2018-07-14T11:59:55.974Z,7.50
2018-07-14T12:00:55.997Z,6.60
2018-07-14T12:01:56.073Z,9.90
2018-07-14T12:02:56.051Z,10.30
2018-07-14T12:03:56.075Z,7.90
2018-07-14T12:04:56.115Z,6.10
2018-07-14T12:05:56.133Z,9.40
2018-07-14T12:06:56.163Z,9.60
2018-07-14T12:07:56.180Z,6.90
2018-07-14T12:08:56.203Z,9.40
2018-07-14T12:09:56.216Z,6.60
2018-07-14T12:10:56.247Z,8.80
2018-07-14T12:11:56.268Z,6.40
2018-07-14T12:12:56.291Z,7.40
2018-07-14T12:13:56.333Z,7.20
2018-07-14T12:14:56.340Z,9.30
2018-07-14T12:15:56.365Z,6.70
2018-07-14T12:16:56.392Z,5.90
2018-07-14T12:17:56.414Z,7.00
2018-07-14T12:18:56.441Z,8.40
2018-07-14T12:19:56.470Z,6.80
2018-07-14T12:20:56.489Z,7.90
2018-07-14T12:21:56.531Z,9.50
2018-07-14T12:22:56.544Z,8.40
2018-07-14T12:23:56.566Z,8.50
2018-07-14T12:24:56.593Z,8.30
2018-07-14T12:25:56.617Z,5.20
2018-07-14T12:26:56.640Z,8.70
2018-07-14T12:27:56.662Z,9.90
2018-07-14T12:28:56.690Z,10.10
2018-07-14T12:29:56.724Z,7.70
2018-07-14T12:30:56.758Z,6.50
2018-07-14T12:31:56.779Z,9.50
2018-07-14T12:32:56.787Z,6.10
2018-07-14T12:33:56.824Z,6.40
2018-07-14T12:34:56.845Z,8.30
2018-07-14T12:35:56.871Z,9.30
2018-07-14T12:36:56.889Z,11.60
2018-07-14T12:37:56.913Z,10.70
2018-07-14T12:38:56.939Z,8.70
2018-07-14T12:39:56.957Z,8.90
2018-07-14T12:40:56.991Z,9.90
2018-07-14T12:41:57.018Z,10.60
2018-07-14T12:42:57.035Z,8.00
2018-07-14T12:43:57.069Z,6.90
2018-07-14T12:44:57.083Z,6.80
2018-07-14T12:45:57.112Z,9.40
2018-07-14T12:46:57.138Z,8.40
2018-07-14T12:47:57.165Z,8.90
2018-07-14T12:48:57.196Z,9.20
2018-07-14T12:49:57.216Z,6.30
2018-07-14T12:50:57.232Z,6.90
2018-07-14T12:51:57.258Z,6.00
2018-07-14T12:52:57.291Z,11.50
2018-07-14T12:53:57.404Z,9.60
2018-07-14T12:54:57.341Z,9.00
2018-07-14T12:55:57.365Z,7.10
2018-07-14T12:56:57.384Z,7.80
2018-07-14T12:57:57.419Z,10.10
2018-07-14T12:58:57.452Z,5.80
2018-07-14T12:59:57.507Z,7.60
2018-07-14T13:00:57.485Z,5.10
2018-07-14T13:01:57.512Z,6.60
2018-07-14T13:02:57.534Z,8.20